»·PEaware :: N1927H KTOA-KVNY

N1927H :: KTOA-KVNY

FLIGHT INFORMATION

Flight Status: Arrived
Operator: Privately registered:
United States
More flights under this callsign
Pilot: Wayne R. (17783)
Aircraft: PIPER PA-28R-201 ARROW
(P28R)
More flights by this aircraft type
Origin: KTOA Zamperini
United States
Destination: KVNY Van Nuys
United States
More flights between these airports :: More routes between these airports
Route: +LAX170 LIMBO V64 SMO125 SMO SMO317 CANOG
File this flight plan on PilotEdge
Remarks: SKYHIGH-1
Altitude:
(Current/Filed)
4,000ft
Speed:
(Current/Filed)
125kts
Departed: 04-Jan-20 01:43 PM
Arrived: 04-Jan-20 02:46 PM
Distance/Time
Traveled:
25nm/1:03
Distance/Time
To Go:
Arrived

Flight Plot

Page will automatically refresh every two minutes.

Flight plan parsing failed; only flown route is shown


Map Options




Map Legend


Flown Route
Filed Route
Departure Airport
Arrival Airport
Navaid (VOR, NDB)
Fix

Horizontal Profiles

Position Reports

Time Latitude Longitude Heading Altitude Ground
Speed
04-Jan-20 13:22 33.796503 -118.332401 0 105ft 0kts
04-Jan-20 13:23 33.796503 -118.332401 0 105ft 0kts
04-Jan-20 13:24 33.796503 -118.332401 0 105ft 0kts
04-Jan-20 13:25 33.796503 -118.332401 0 105ft 0kts
04-Jan-20 13:26 33.796503 -118.332401 0 105ft 0kts
04-Jan-20 13:27 33.796503 -118.332401 0 105ft 0kts
04-Jan-20 13:28 33.796503 -118.332401 0 105ft 0kts
04-Jan-20 13:29 33.796503 -118.332401 0 105ft 0kts
04-Jan-20 13:30 33.796503 -118.332401 0 105ft 0kts
04-Jan-20 13:31 33.796503 -118.332401 0 105ft 0kts
04-Jan-20 13:32 33.796503 -118.332401 0 105ft 0kts
04-Jan-20 13:33 33.796503 -118.332401 0 105ft 0kts
04-Jan-20 13:34 33.797552 -118.332435 349 102ft 0kts
04-Jan-20 13:35 33.797552 -118.332435 349 102ft 0kts
04-Jan-20 13:36 33.797552 -118.332435 349 102ft 0kts
04-Jan-20 13:37 33.797552 -118.332435 349 102ft 0kts
04-Jan-20 13:38 33.797552 -118.332435 349 102ft 0kts
04-Jan-20 13:39 33.799087 -118.333320 37 99ft 4kts
04-Jan-20 13:40 33.799096 -118.333312 37 99ft 0kts
04-Jan-20 13:41 33.799096 -118.333312 37 99ft 0kts
04-Jan-20 13:42 33.804806 -118.340532 299 205ft 85kts
04-Jan-20 13:43 33.822161 -118.369243 306 826ft 116kts
04-Jan-20 13:44 33.840330 -118.402087 300 1431ft 117kts
04-Jan-20 13:45 33.846537 -118.436203 219 2040ft 118kts
04-Jan-20 13:46 33.813445 -118.438236 185 2643ft 121kts
04-Jan-20 13:47 33.779944 -118.439559 185 3240ft 119kts
04-Jan-20 13:48 33.762403 -118.411439 88 3730ft 133kts
04-Jan-20 13:49 33.763887 -118.364926 87 3955ft 139kts
04-Jan-20 13:50 33.766200 -118.317034 85 4024ft 147kts
04-Jan-20 13:51 33.768818 -118.267494 80 4023ft 148kts
04-Jan-20 13:52 33.801178 -118.255171 356 4023ft 135kts
04-Jan-20 13:53 33.833532 -118.274819 326 4022ft 130kts
04-Jan-20 13:54 33.864094 -118.297592 321 4023ft 129kts
04-Jan-20 13:55 33.892766 -118.323897 321 4023ft 129kts
04-Jan-20 13:56 33.920608 -118.351557 318 4023ft 130kts
04-Jan-20 13:57 33.947337 -118.381162 316 4022ft 129kts
04-Jan-20 13:58 33.973100 -118.411401 317 4021ft 129kts
04-Jan-20 13:59 33.999232 -118.440687 317 4021ft 129kts
04-Jan-20 14:00 34.028686 -118.464820 331 4021ft 128kts
04-Jan-20 14:01 34.060019 -118.484846 332 4020ft 128kts
04-Jan-20 14:02 34.091887 -118.505214 332 4020ft 128kts
04-Jan-20 14:03 34.123542 -118.525457 332 4022ft 129kts
04-Jan-20 14:04 34.155240 -118.545743 332 4020ft 129kts
04-Jan-20 14:05 34.184799 -118.564584 333 4430ft 114kts
04-Jan-20 14:06 34.210846 -118.584600 327 4879ft 106kts
04-Jan-20 14:07 34.239772 -118.596506 349 4981ft 120kts
04-Jan-20 14:08 34.273339 -118.602333 349 4980ft 122kts
04-Jan-20 14:09 34.307106 -118.608078 349 4980ft 122kts
04-Jan-20 14:10 34.340956 -118.613705 349 4980ft 122kts
04-Jan-20 14:11 34.374743 -118.619194 349 4980ft 123kts
04-Jan-20 14:12 34.408647 -118.624561 349 4980ft 123kts
04-Jan-20 14:13 34.442941 -118.629238 349 4986ft 125kts
04-Jan-20 14:14 34.469081 -118.608166 68 4996ft 137kts
04-Jan-20 14:15 34.478318 -118.565269 79 4994ft 129kts
04-Jan-20 14:16 34.456035 -118.532038 131 4996ft 136kts
04-Jan-20 14:17 34.421313 -118.512671 155 4990ft 140kts
04-Jan-20 14:19 34.383084 -118.503354 175 4994ft 140kts
04-Jan-20 14:20 34.343082 -118.502082 180 4518ft 148kts
04-Jan-20 14:21 34.303175 -118.499830 175 3485ft 125kts
04-Jan-20 14:22 34.269895 -118.496219 173 2343ft 118kts
04-Jan-20 14:23 34.240144 -118.493151 177 1469ft 96kts
04-Jan-20 14:24 34.212782 -118.490925 175 1160ft 121kts
04-Jan-20 14:25 34.176403 -118.484098 157 1497ft 134kts
04-Jan-20 14:26 34.141174 -118.471042 163 2012ft 131kts
04-Jan-20 14:27 34.106829 -118.457716 163 2617ft 128kts
04-Jan-20 14:28 34.072391 -118.453127 184 3203ft 124kts
04-Jan-20 14:29 34.037741 -118.453955 184 3803ft 124kts
04-Jan-20 14:30 34.019562 -118.476519 268 4355ft 112kts
04-Jan-20 14:31 34.021436 -118.515578 278 4608ft 125kts
04-Jan-20 14:32 34.027828 -118.558158 278 4608ft 130kts
04-Jan-20 14:33 34.034931 -118.601388 278 4608ft 131kts
04-Jan-20 14:34 34.042191 -118.644733 278 4608ft 132kts
04-Jan-20 14:35 34.058866 -118.679799 349 4602ft 146kts
04-Jan-20 14:36 34.098264 -118.683508 350 4610ft 139kts
04-Jan-20 14:37 34.136764 -118.686551 350 4496ft 142kts
04-Jan-20 14:38 34.176137 -118.690074 350 3833ft 129kts
04-Jan-20 14:39 34.197415 -118.661778 58 3609ft 113kts
04-Jan-20 14:39 34.202696 -118.630983 81 3529ft 118kts
04-Jan-20 14:40 34.201928 -118.589869 93 2993ft 127kts
04-Jan-20 14:42 34.197066 -118.542013 95 1944ft 119kts
04-Jan-20 14:42 34.197245 -118.511430 34 1587ft 99kts
04-Jan-20 14:43 34.226012 -118.512258 355 1437ft 103kts
04-Jan-20 14:44 34.229039 -118.491728 149 1108ft 100kts
04-Jan-20 14:45 34.210780 -118.489221 173 804ft 16kts
04-Jan-20 14:46 34.210301 -118.488580 92 804ft 0kts
04-Jan-20 14:47 34.209495 -118.487276 262 804ft 0kts
04-Jan-20 14:48 34.209495 -118.487276 262 804ft 0kts
04-Jan-20 14:49 34.209495 -118.487276 262 804ft 0kts
04-Jan-20 14:50 34.209495 -118.487276 262 804ft 0kts
04-Jan-20 14:51 34.209495 -118.487276 262 804ft 0kts
04-Jan-20 14:52 34.209495 -118.487276 262 804ft 0kts
04-Jan-20 14:53 34.209495 -118.487276 262 804ft 0kts
04-Jan-20 14:54 34.209495 -118.487276 262 804ft 0kts
04-Jan-20 14:55 34.209495 -118.487276 262 804ft 0kts
04-Jan-20 14:56 34.209495 -118.487276 262 804ft 0kts
04-Jan-20 14:57 34.209495 -118.487276 262 804ft 0kts
04-Jan-20 14:58 34.209495 -118.487276 262 804ft 0kts

Navigation Log

Ident Type
Flight plan parsing failed, navigation log unavailable